Time;durP1;ratioP1;P1;durP2;ratioP2;P2;SDS_P1;SDS_P2;PMS_P1;PMS_P2;Temp;Humidity;BMP_temperature;BMP_pressure;BME280_temperature;BME280_humidity;BME280_pressure;Samples;Min_cycle;Max_cycle;Signal;HPM_P1;HPM_P2
2022/04/23 00:01:10;;;;;;;0.35;0.35;;;;;;;;;;2096815;28;20132;-81
2022/04/23 00:02:21;;;;;;;;;;;;;;;;;;;;;
2022/04/23 00:03:26;;;;;;;0.00;0.00;;;;;;;;;;2088700;28;20456;-81
2022/04/23 00:04:30;;;;;;;0.20;0.20;;;;;;;;;;2089167;28;20420;-82
2022/04/23 00:05:49;;;;;;;0.20;0.20;;;;;;;;;;2088825;28;20507;-81
2022/04/23 00:07:12;;;;;;;0.10;0.10;;;;;;;;;;2089117;28;20021;-81
2022/04/23 00:08:20;;;;;;;0.10;0.10;;;;;;;;;;2088876;28;20029;-81
2022/04/23 00:09:27;;;;;;;0.10;0.10;;;;;;;;;;2091291;28;20064;-81
2022/04/23 00:10:30;;;;;;;0.10;0.10;;;;;;;;;;2089047;28;20040;-81
2022/04/23 00:11:34;;;;;;;0.10;0.10;;;;;;;;;;2088929;28;20040;-81
2022/04/23 00:12:35;;;;;;;0.10;0.10;;;;;;;;;;2089202;28;20071;-81
2022/04/23 00:13:38;;;;;;;0.10;0.10;;;;;;;;;;2089011;28;20033;-81
2022/04/23 00:14:38;;;;;;;0.08;0.08;;;;;;;;;;2088927;28;20037;-82
2022/04/23 00:15:44;;;;;;;0.00;0.00;;;;;;;;;;2089132;28;20032;-81
2022/04/23 00:16:45;;;;;;;0.10;0.10;;;;;;;;;;2089408;28;20373;-81
2022/04/23 00:17:56;;;;;;;0.32;0.32;;;;;;;;;;2090440;28;20025;-81
2022/04/23 00:18:59;;;;;;;1.15;0.65;;;;;;;;;;2090521;28;20457;-81
2022/04/23 00:20:03;;;;;;;0.10;0.10;;;;;;;;;;2090467;28;20035;-82
2022/04/23 00:21:06;;;;;;;0.10;0.10;;;;;;;;;;2089765;28;20048;-81
2022/04/23 00:22:16;;;;;;;0.10;0.10;;;;;;;;;;2090090;28;20386;-81
2022/04/23 00:23:41;;;;;;;0.10;0.10;;;;;;;;;;2093347;28;20029;-81
2022/04/23 00:25:26;;;;;;;0.10;0.10;;;;;;;;;;2090372;28;20016;-82
2022/04/23 00:26:41;;;;;;;0.10;0.10;;;;;;;;;;2089858;28;20455;-81
2022/04/23 00:27:47;;;;;;;0.10;0.10;;;;;;;;;;2089715;28;20051;-82
2022/04/23 00:28:51;;;;;;;0.10;0.10;;;;;;;;;;2082132;28;20068;-81
2022/04/23 00:30:17;;;;;;;0.10;0.10;;;;;;;;;;2090248;28;20037;-84
2022/04/23 00:31:36;;;;;;;0.10;0.10;;;;;;;;;;2094411;28;20041;-81
2022/04/23 00:32:37;;;;;;;0.20;0.20;;;;;;;;;;2091996;28;20039;-81
2022/04/23 00:33:38;;;;;;;0.10;0.10;;;;;;;;;;2098371;28;20035;-81
2022/04/23 00:34:46;;;;;;;0.40;0.40;;;;;;;;;;2089843;28;20029;-82
2022/04/23 00:36:01;;;;;;;;;;;;;;;;;;;;;
2022/04/23 00:37:14;;;;;;;0.10;0.10;;;;;;;;;;2087047;28;20124;-81
2022/04/23 00:38:16;;;;;;;0.10;0.10;;;;;;;;;;2090566;28;20025;-82
2022/04/23 00:39:16;;;;;;;0.10;0.10;;;;;;;;;;2090371;28;20406;-82
2022/04/23 00:40:39;;;;;;;0.10;0.10;;;;;;;;;;2098029;28;20033;-81
2022/04/23 00:42:08;;;;;;;0.10;0.10;;;;;;;;;;2094915;28;20041;-82
2022/04/23 00:43:26;;;;;;;0.10;0.10;;;;;;;;;;2081510;28;20452;-82
2022/04/23 00:44:29;;;;;;;0.08;0.08;;;;;;;;;;2084307;28;20084;-81
2022/04/23 00:45:30;;;;;;;0.10;0.10;;;;;;;;;;2090011;28;20049;-81
2022/04/23 00:46:41;;;;;;;0.20;0.20;;;;;;;;;;2090301;28;20025;-79
2022/04/23 00:47:49;;;;;;;0.10;0.10;;;;;;;;;;2089518;28;20099;-80
2022/04/23 00:49:02;;;;;;;;;;;;;;;;;;;;;
2022/04/23 00:50:21;;;;;;;;;;;;;;;;;;;;;
2022/04/23 00:51:31;;;;;;;0.47;0.47;;;;;;;;;;2090264;28;20489;-80
2022/04/23 00:52:37;;;;;;;0.10;0.10;;;;;;;;;;2093158;28;20096;-82
2022/04/23 00:53:54;;;;;;;0.10;0.10;;;;;;;;;;2090212;28;20317;-81
2022/04/23 00:55:04;;;;;;;0.17;0.17;;;;;;;;;;2089968;28;20079;-80
2022/04/23 00:56:07;;;;;;;1.75;0.52;;;;;;;;;;2089713;28;20017;-82
2022/04/23 00:57:15;;;;;;;0.20;0.20;;;;;;;;;;2093400;28;20042;-81
2022/04/23 00:58:19;;;;;;;0.00;0.00;;;;;;;;;;2089793;28;20032;-82
2022/04/23 00:59:27;;;;;;;0.00;0.00;;;;;;;;;;2090148;28;20377;-81
2022/04/23 01:00:37;;;;;;;0.10;0.10;;;;;;;;;;2081477;28;20025;-81
2022/04/23 01:02:03;;;;;;;0.00;0.00;;;;;;;;;;2083499;28;20030;-81
2022/04/23 01:03:23;;;;;;;0.25;0.25;;;;;;;;;;2094866;28;20584;-83
2022/04/23 01:04:26;;;;;;;0.00;0.00;;;;;;;;;;2090241;28;20028;-81
2022/04/23 01:05:41;;;;;;;;;;;;;;;;;;;;;
2022/04/23 01:06:44;;;;;;;0.00;0.00;;;;;;;;;;2096348;28;20024;-81
2022/04/23 01:09:21;;;;;;;0.20;0.20;;;;;;;;;;2089862;28;20359;-82
2022/04/23 01:10:33;;;;;;;0.00;0.00;;;;;;;;;;2097698;28;20327;-82
2022/04/23 01:11:40;;;;;;;0.20;0.20;;;;;;;;;;2096594;28;20029;-82
2022/04/23 01:14:43;;;;;;;0.00;0.00;;;;;;;;;;2079340;28;20378;-81
2022/04/23 01:15:57;;;;;;;0.10;0.10;;;;;;;;;;2097206;28;20028;-81
2022/04/23 01:17:02;;;;;;;0.00;0.00;;;;;;;;;;2096061;28;20118;-81
2022/04/23 01:18:14;;;;;;;0.08;0.08;;;;;;;;;;2089652;28;20171;-81
2022/04/23 01:19:44;;;;;;;0.00;0.00;;;;;;;;;;2082980;28;20025;-81
2022/04/23 01:20:49;;;;;;;0.52;0.20;;;;;;;;;;2093487;28;20020;-79
2022/04/23 01:21:50;;;;;;;0.00;0.00;;;;;;;;;;2097775;28;20472;-81
2022/04/23 01:22:53;;;;;;;0.10;0.10;;;;;;;;;;2097841;28;20100;-81
2022/04/23 01:23:57;;;;;;;0.00;0.00;;;;;;;;;;2097870;28;20029;-81
2022/04/23 01:24:57;;;;;;;0.00;0.00;;;;;;;;;;2097679;28;20024;-82
2022/04/23 01:25:58;;;;;;;0.10;0.10;;;;;;;;;;2089555;28;20057;-82
2022/04/23 01:27:17;;;;;;;0.10;0.10;;;;;;;;;;2089545;28;20064;-81
2022/04/23 01:28:42;;;;;;;0.10;0.10;;;;;;;;;;2089918;28;20073;-79
2022/04/23 01:29:43;;;;;;;0.10;0.10;;;;;;;;;;2089256;28;20025;-81
2022/04/23 01:30:46;;;;;;;0.10;0.10;;;;;;;;;;2089582;28;20121;-80
2022/04/23 01:31:50;;;;;;;0.10;0.10;;;;;;;;;;2089894;28;20025;-81
2022/04/23 01:33:01;;;;;;;0.08;0.08;;;;;;;;;;2089900;28;20028;-82
2022/04/23 01:34:01;;;;;;;0.40;0.40;;;;;;;;;;2092768;28;20029;-82
2022/04/23 01:35:05;;;;;;;0.10;0.10;;;;;;;;;;2089845;28;20123;-81
2022/04/23 01:36:13;;;;;;;0.10;0.10;;;;;;;;;;2089927;28;20533;-82
2022/04/23 01:37:21;;;;;;;0.10;0.10;;;;;;;;;;2088970;28;20037;-82
2022/04/23 01:38:32;;;;;;;0.10;0.10;;;;;;;;;;2089507;28;20021;-82
2022/04/23 01:40:00;;;;;;;0.10;0.10;;;;;;;;;;2082106;28;20041;-82
2022/04/23 01:41:00;;;;;;;0.20;0.20;;;;;;;;;;2089383;28;20492;-81
2022/04/23 01:42:03;;;;;;;0.00;0.00;;;;;;;;;;2089420;28;20075;-82
2022/04/23 01:43:37;;;;;;;0.13;0.13;;;;;;;;;;2089950;28;20025;-82
2022/04/23 01:44:40;;;;;;;0.10;0.10;;;;;;;;;;2089832;28;20520;-82
2022/04/23 01:45:52;;;;;;;0.05;0.05;;;;;;;;;;2089803;28;20025;-80
2022/04/23 01:46:52;;;;;;;0.10;0.10;;;;;;;;;;2089754;28;20056;-82
2022/04/23 01:47:53;;;;;;;0.10;0.10;;;;;;;;;;2081010;28;20059;-81
2022/04/23 01:48:56;;;;;;;0.10;0.10;;;;;;;;;;2072899;28;20025;-82
2022/04/23 01:50:02;;;;;;;0.00;0.00;;;;;;;;;;2073062;28;20032;-81
2022/04/23 01:51:10;;;;;;;0.10;0.10;;;;;;;;;;2074468;28;20460;-80
2022/04/23 01:52:15;;;;;;;0.00;0.00;;;;;;;;;;2090817;28;20487;-80
2022/04/23 01:53:28;;;;;;;0.10;0.10;;;;;;;;;;2092732;28;20389;-81
2022/04/23 01:54:38;;;;;;;0.10;0.10;;;;;;;;;;2083361;28;20542;-81
2022/04/23 01:55:38;;;;;;;0.00;0.00;;;;;;;;;;2089463;28;20537;-81
2022/04/23 01:56:39;;;;;;;0.10;0.10;;;;;;;;;;2089153;28;20035;-81
2022/04/23 01:57:48;;;;;;;0.10;0.10;;;;;;;;;;2089349;28;20025;-81
2022/04/23 01:58:59;;;;;;;0.10;0.10;;;;;;;;;;2089654;28;20107;-81
2022/04/23 02:00:12;;;;;;;0.10;0.10;;;;;;;;;;2080901;28;20112;-80
2022/04/23 02:01:13;;;;;;;0.10;0.10;;;;;;;;;;2076073;28;20026;-81
2022/04/23 02:02:22;;;;;;;0.10;0.10;;;;;;;;;;2089107;28;20040;-81
2022/04/23 02:03:30;;;;;;;0.57;0.57;;;;;;;;;;2089880;28;20116;-80
2022/04/23 02:04:38;;;;;;;0.10;0.10;;;;;;;;;;2080857;28;20087;-81
2022/04/23 02:05:48;;;;;;;0.15;0.15;;;;;;;;;;2084824;28;20053;-80
2022/04/23 02:06:52;;;;;;;0.10;0.10;;;;;;;;;;2089135;28;20040;-81
2022/04/23 02:07:58;;;;;;;1.85;0.73;;;;;;;;;;2080864;28;20241;-79
2022/04/23 02:09:06;;;;;;;0.20;0.20;;;;;;;;;;2076280;28;20470;-80
2022/04/23 02:10:10;;;;;;;2.55;0.82;;;;;;;;;;2089251;28;20087;-80
2022/04/23 02:11:13;;;;;;;1.38;1.13;;;;;;;;;;2089099;28;20120;-82
2022/04/23 02:12:15;;;;;;;0.10;0.10;;;;;;;;;;2089238;28;20472;-81
2022/04/23 02:13:34;;;;;;;0.10;0.10;;;;;;;;;;2088940;28;20120;-83
2022/04/23 02:14:37;;;;;;;0.50;0.50;;;;;;;;;;2089414;28;20055;-81
2022/04/23 02:15:40;;;;;;;0.20;0.20;;;;;;;;;;2089545;28;20083;-79
2022/04/23 02:16:57;;;;;;;0.55;0.35;;;;;;;;;;2088719;28;20429;-80
2022/04/23 02:18:00;;;;;;;0.25;0.25;;;;;;;;;;2089307;28;20036;-80
2022/04/23 02:19:04;;;;;;;0.20;0.20;;;;;;;;;;2089660;28;20457;-80
2022/04/23 02:20:08;;;;;;;0.10;0.10;;;;;;;;;;2089557;28;20017;-81
2022/04/23 02:21:11;;;;;;;0.35;0.35;;;;;;;;;;2089651;28;20458;-76
2022/04/23 02:22:22;;;;;;;0.13;0.13;;;;;;;;;;2089018;28;20033;-79
2022/04/23 02:23:25;;;;;;;0.20;0.20;;;;;;;;;;2080856;28;20476;-81
2022/04/23 02:24:30;;;;;;;0.10;0.10;;;;;;;;;;2079452;28;20481;-82
2022/04/23 02:25:34;;;;;;;0.22;0.22;;;;;;;;;;2081383;28;20029;-80
2022/04/23 02:26:40;;;;;;;0.20;0.20;;;;;;;;;;2081296;28;20446;-78
2022/04/23 02:27:52;;;;;;;;;;;;;;;;;;;;;
2022/04/23 02:29:02;;;;;;;0.10;0.10;;;;;;;;;;2089000;28;20025;-80
2022/04/23 02:30:05;;;;;;;0.10;0.10;;;;;;;;;;2080498;28;20029;-81
2022/04/23 02:31:15;;;;;;;0.13;0.13;;;;;;;;;;2081285;28;20295;-81
2022/04/23 02:33:44;;;;;;;0.10;0.10;;;;;;;;;;2081915;28;20041;-81
2022/04/23 02:34:59;;;;;;;0.10;0.10;;;;;;;;;;2089382;28;20029;-81
2022/04/23 02:36:15;;;;;;;0.10;0.10;;;;;;;;;;2090942;28;20052;-81
2022/04/23 02:37:20;;;;;;;0.13;0.13;;;;;;;;;;2089464;28;20041;-80
2022/04/23 02:38:21;;;;;;;0.20;0.20;;;;;;;;;;2090276;28;20031;-82
2022/04/23 02:39:24;;;;;;;;;;;;;;;;;;2089692;28;20378;-81
2022/04/23 02:40:35;;;;;;;0.10;0.10;;;;;;;;;;2096926;28;19908;-80
2022/04/23 02:41:38;;;;;;;0.10;0.10;;;;;;;;;;2088955;28;20028;-81
2022/04/23 02:42:42;;;;;;;0.10;0.10;;;;;;;;;;2088969;28;20113;-81
2022/04/23 02:43:47;;;;;;;0.10;0.10;;;;;;;;;;2081491;28;20390;-81
2022/04/23 02:44:50;;;;;;;0.20;0.20;;;;;;;;;;2081309;28;20017;-81
2022/04/23 02:45:53;;;;;;;0.10;0.10;;;;;;;;;;2088894;28;20029;-81
2022/04/23 02:46:56;;;;;;;0.13;0.13;;;;;;;;;;2080906;28;20081;-81
2022/04/23 02:48:02;;;;;;;0.22;0.22;;;;;;;;;;2088956;28;20025;-81
2022/04/23 02:49:05;;;;;;;0.15;0.15;;;;;;;;;;2089427;28;20043;-81
2022/04/23 02:50:26;;;;;;;0.15;0.15;;;;;;;;;;2089224;28;20423;-82
2022/04/23 02:51:35;;;;;;;0.10;0.10;;;;;;;;;;2089529;28;20420;-82
2022/04/23 02:52:37;;;;;;;0.38;0.38;;;;;;;;;;2091407;28;20406;-81
2022/04/23 02:53:37;;;;;;;0.85;0.85;;;;;;;;;;2080627;28;20091;-81
2022/04/23 02:54:40;;;;;;;0.10;0.10;;;;;;;;;;2080398;28;20123;-82
2022/04/23 02:55:41;;;;;;;0.30;0.30;;;;;;;;;;2088932;28;20492;-82
2022/04/23 02:56:47;;;;;;;0.10;0.10;;;;;;;;;;2089279;28;20020;-81
2022/04/23 02:57:59;;;;;;;0.10;0.10;;;;;;;;;;2088793;28;20024;-82
2022/04/23 02:59:06;;;;;;;0.10;0.10;;;;;;;;;;2090506;28;20122;-83
2022/04/23 03:00:47;;;;;;;0.10;0.10;;;;;;;;;;2096346;28;20103;-82
2022/04/23 03:02:08;;;;;;;0.55;0.40;;;;;;;;;;2088518;28;20130;-82
2022/04/23 03:03:12;;;;;;;0.47;0.47;;;;;;;;;;2066323;28;20095;-82
2022/04/23 03:04:19;;;;;;;0.10;0.10;;;;;;;;;;2089262;28;20496;-82
2022/04/23 03:05:27;;;;;;;0.15;0.15;;;;;;;;;;2097949;28;20031;-81
2022/04/23 03:06:30;;;;;;;0.10;0.10;;;;;;;;;;2092139;28;20458;-82
2022/04/23 03:07:34;;;;;;;1.10;1.00;;;;;;;;;;2089372;28;20107;-81
2022/04/23 03:08:39;;;;;;;0.52;0.52;;;;;;;;;;2089434;28;20393;-81
2022/04/23 03:09:47;;;;;;;0.50;0.50;;;;;;;;;;2089210;28;20025;-81
2022/04/23 03:10:54;;;;;;;0.10;0.10;;;;;;;;;;2088711;28;20032;-81
2022/04/23 03:12:02;;;;;;;0.10;0.10;;;;;;;;;;2088941;28;20032;-82
2022/04/23 03:13:15;;;;;;;0.13;0.13;;;;;;;;;;2092292;28;20056;-83
2022/04/23 03:14:16;;;;;;;0.30;0.30;;;;;;;;;;2088563;28;20033;-83
2022/04/23 03:15:17;;;;;;;;;;;;;;;;;;2089273;28;20033;-81
2022/04/23 03:16:25;;;;;;;0.97;0.97;;;;;;;;;;2094501;28;19963;-83
2022/04/23 03:17:36;;;;;;;0.30;0.30;;;;;;;;;;2098846;28;20412;-83
2022/04/23 03:18:38;;;;;;;0.10;0.10;;;;;;;;;;2088962;28;20378;-83
2022/04/23 03:19:41;;;;;;;0.25;0.25;;;;;;;;;;2089006;28;20337;-83
2022/04/23 03:20:53;;;;;;;0.10;0.10;;;;;;;;;;2097084;28;20422;-83
2022/04/23 03:21:56;;;;;;;0.28;0.28;;;;;;;;;;2088685;28;20129;-83
2022/04/23 03:22:59;;;;;;;0.10;0.10;;;;;;;;;;2088924;28;20312;-83
2022/04/23 03:24:14;;;;;;;0.15;0.15;;;;;;;;;;2089267;28;20044;-83
2022/04/23 03:25:17;;;;;;;0.10;0.10;;;;;;;;;;2088486;28;20037;-83
2022/04/23 03:26:17;;;;;;;0.10;0.10;;;;;;;;;;2088511;28;20472;-83
2022/04/23 03:27:25;;;;;;;0.10;0.10;;;;;;;;;;2093957;28;20029;-83
2022/04/23 03:28:49;;;;;;;0.15;0.15;;;;;;;;;;2090394;28;20052;-83
2022/04/23 03:29:52;;;;;;;0.13;0.13;;;;;;;;;;2088184;28;20048;-83
2022/04/23 03:31:05;;;;;;;;;;;;;;;;;;;;;
2022/04/23 03:32:31;;;;;;;;;;;;;;;;;;;;;
2022/04/23 03:33:48;;;;;;;;;;;;;;;;;;;;;
2022/04/23 03:34:51;;;;;;;0.20;0.20;;;;;;;;;;2088773;28;20028;-83
2022/04/23 03:35:54;;;;;;;0.52;0.47;;;;;;;;;;2096412;28;20025;-83
2022/04/23 03:36:57;;;;;;;0.40;0.40;;;;;;;;;;2096460;28;20020;-82
2022/04/23 03:38:03;;;;;;;0.10;0.10;;;;;;;;;;2088500;28;20047;-82
2022/04/23 03:39:03;;;;;;;0.20;0.20;;;;;;;;;;2088741;28;20036;-82
2022/04/23 03:40:07;;;;;;;;;;;;;;;;;;2089593;28;20104;-82
2022/04/23 03:41:34;;;;;;;2.08;1.52;;;;;;;;;;2089085;28;19920;-82
2022/04/23 03:42:57;;;;;;;0.17;0.17;;;;;;;;;;2088654;28;20033;-82
2022/04/23 03:44:13;;;;;;;0.20;0.20;;;;;;;;;;2088978;28;20043;-82
2022/04/23 03:45:33;;;;;;;;;;;;;;;;;;;;;
2022/04/23 03:46:39;;;;;;;0.20;0.20;;;;;;;;;;2089154;28;20032;-83
2022/04/23 03:48:12;;;;;;;0.10;0.10;;;;;;;;;;2080530;28;20025;-82
2022/04/23 03:49:18;;;;;;;0.10;0.10;;;;;;;;;;2090121;28;20032;-82
2022/04/23 03:50:26;;;;;;;0.30;0.30;;;;;;;;;;2096387;28;20028;-82
2022/04/23 03:51:29;;;;;;;0.85;0.85;;;;;;;;;;2090363;28;20021;-81
2022/04/23 03:52:37;;;;;;;0.60;0.60;;;;;;;;;;2090442;28;20047;-81
2022/04/23 03:53:50;;;;;;;0.13;0.13;;;;;;;;;;2081867;28;20048;-81
2022/04/23 03:54:54;;;;;;;0.20;0.20;;;;;;;;;;2083675;28;20025;-81
2022/04/23 03:55:58;;;;;;;0.80;0.80;;;;;;;;;;2090685;28;20454;-81
2022/04/23 03:57:01;;;;;;;0.20;0.20;;;;;;;;;;2090676;28;20564;-81
2022/04/23 03:58:04;;;;;;;0.68;0.68;;;;;;;;;;2090426;28;20052;-82
2022/04/23 03:59:07;;;;;;;0.10;0.10;;;;;;;;;;2081636;28;20379;-82
2022/04/23 04:00:09;;;;;;;0.93;0.90;;;;;;;;;;2082088;28;20021;-83
2022/04/23 04:01:10;;;;;;;0.20;0.20;;;;;;;;;;2090484;28;20033;-82
2022/04/23 04:02:15;;;;;;;;;;;;;;;;;;2082004;28;20084;-81
2022/04/23 04:03:36;;;;;;;0.10;0.10;;;;;;;;;;2088868;28;19991;-83
2022/04/23 04:04:41;;;;;;;0.30;0.30;;;;;;;;;;2090060;28;20128;-82
2022/04/23 04:05:50;;;;;;;0.10;0.10;;;;;;;;;;2090363;28;20099;-82
2022/04/23 04:07:02;;;;;;;0.10;0.10;;;;;;;;;;2097252;28;20354;-82
2022/04/23 04:08:13;;;;;;;;;;;;;;;;;;;;;
2022/04/23 04:09:17;;;;;;;0.20;0.20;;;;;;;;;;2086613;28;20060;-81
2022/04/23 04:10:21;;;;;;;0.10;0.10;;;;;;;;;;2081533;28;20036;-81
2022/04/23 04:11:34;;;;;;;;;;;;;;;;;;;;;
2022/04/23 04:12:34;;;;;;;0.20;0.20;;;;;;;;;;2090148;28;20100;-82
2022/04/23 04:13:37;;;;;;;;;;;;;;;;;;2090758;28;20055;-82
2022/04/23 04:14:42;;;;;;;0.20;0.20;;;;;;;;;;2090599;28;19920;-83
2022/04/23 04:15:43;;;;;;;0.10;0.10;;;;;;;;;;2090187;28;20016;-82
2022/04/23 04:16:45;;;;;;;;;;;;;;;;;;2091080;28;20041;-81
2022/04/23 04:17:51;;;;;;;0.57;0.57;;;;;;;;;;2098108;28;19949;-83
2022/04/23 04:18:54;;;;;;;0.22;0.22;;;;;;;;;;2090079;28;20032;-81
2022/04/23 04:20:07;;;;;;;0.10;0.10;;;;;;;;;;2082549;28;20017;-82
2022/04/23 04:21:19;;;;;;;0.10;0.10;;;;;;;;;;2090135;28;20044;-82
2022/04/23 04:22:21;;;;;;;0.20;0.20;;;;;;;;;;2092346;28;20382;-82
2022/04/23 04:23:24;;;;;;;1.02;0.40;;;;;;;;;;2089472;28;20427;-81
2022/04/23 04:24:26;;;;;;;0.10;0.10;;;;;;;;;;2081926;28;20051;-83
2022/04/23 04:25:26;;;;;;;0.73;0.50;;;;;;;;;;2081437;28;20028;-83
2022/04/23 04:26:27;;;;;;;0.22;0.22;;;;;;;;;;2081306;28;20056;-83
2022/04/23 04:27:27;;;;;;;0.28;0.20;;;;;;;;;;2090067;28;20466;-83
2022/04/23 04:28:29;;;;;;;;;;;;;;;;;;2098450;28;20477;-82
2022/04/23 04:29:32;;;;;;;0.10;0.10;;;;;;;;;;2097837;28;19912;-83
2022/04/23 04:31:47;;;;;;;0.10;0.10;;;;;;;;;;2089795;28;20425;-83
2022/04/23 04:31:53;;;;;;;0.13;0.13;;;;;;;;;;2089742;28;20040;-83
2022/04/23 04:32:56;;;;;;;0.13;0.13;;;;;;;;;;2089625;28;20459;-82
2022/04/23 04:33:56;;;;;;;0.00;0.00;;;;;;;;;;2089956;28;20025;-82
2022/04/23 04:34:57;;;;;;;0.00;0.00;;;;;;;;;;2097779;28;20384;-83
2022/04/23 04:35:57;;;;;;;0.00;0.00;;;;;;;;;;2098152;28;20611;-83
2022/04/23 04:37:05;;;;;;;0.00;0.00;;;;;;;;;;2090359;28;20025;-83
2022/04/23 04:38:12;;;;;;;0.00;0.00;;;;;;;;;;2090173;28;20040;-84
2022/04/23 04:39:13;;;;;;;0.00;0.00;;;;;;;;;;2089694;28;20352;-83
2022/04/23 04:40:13;;;;;;;0.00;0.00;;;;;;;;;;2089999;28;20166;-83
2022/04/23 04:41:16;;;;;;;0.30;0.30;;;;;;;;;;2090902;28;20429;-83
2022/04/23 04:42:19;;;;;;;0.00;0.00;;;;;;;;;;2090710;28;20021;-84
2022/04/23 04:43:22;;;;;;;0.00;0.00;;;;;;;;;;2090102;28;20028;-84
2022/04/23 04:44:30;;;;;;;0.00;0.00;;;;;;;;;;2089914;28;20029;-84
2022/04/23 04:45:30;;;;;;;0.45;0.25;;;;;;;;;;2091541;28;20038;-84
2022/04/23 04:46:38;;;;;;;0.22;0.22;;;;;;;;;;2090275;28;20017;-83
2022/04/23 04:47:38;;;;;;;0.10;0.10;;;;;;;;;;2090519;28;20033;-83
2022/04/23 04:48:44;;;;;;;0.35;0.35;;;;;;;;;;2090585;28;20041;-83
2022/04/23 04:49:47;;;;;;;0.00;0.00;;;;;;;;;;2092959;28;20293;-83
2022/04/23 04:50:50;;;;;;;0.03;0.03;;;;;;;;;;2089472;28;20013;-85
2022/04/23 04:51:51;;;;;;;0.00;0.00;;;;;;;;;;2091123;28;20021;-83
2022/04/23 04:52:52;;;;;;;0.20;0.20;;;;;;;;;;2090023;28;20025;-83
2022/04/23 04:53:52;;;;;;;1.48;0.50;;;;;;;;;;2090644;28;20031;-83
2022/04/23 04:54:52;;;;;;;0.10;0.10;;;;;;;;;;2089826;28;20021;-83
2022/04/23 04:57:50;;;;;;;;;;;;;;;;;;;;;
2022/04/23 04:59:11;;;;;;;0.00;0.00;;;;;;;;;;2085931;28;20040;-82
2022/04/23 05:00:14;;;;;;;0.25;0.25;;;;;;;;;;2089549;28;20049;-83
2022/04/23 05:01:18;;;;;;;0.10;0.10;;;;;;;;;;2094707;28;20055;-83
2022/04/23 05:02:20;;;;;;;0.20;0.20;;;;;;;;;;2097608;28;20035;-83
2022/04/23 05:03:28;;;;;;;0.52;0.52;;;;;;;;;;2089777;28;20457;-83
2022/04/23 05:04:31;;;;;;;0.00;0.00;;;;;;;;;;2090031;28;20029;-83
2022/04/23 05:05:32;;;;;;;0.00;0.00;;;;;;;;;;2089752;28;20378;-83
2022/04/23 05:06:43;;;;;;;0.10;0.00;;;;;;;;;;2090030;28;20116;-82
2022/04/23 05:07:46;;;;;;;0.40;0.40;;;;;;;;;;2089533;28;20017;-83
2022/04/23 05:08:52;;;;;;;0.00;0.00;;;;;;;;;;2089683;28;20025;-84
2022/04/23 05:10:03;;;;;;;0.00;0.00;;;;;;;;;;2092734;28;20029;-84
2022/04/23 05:11:07;;;;;;;0.00;0.00;;;;;;;;;;2089781;28;20036;-84
2022/04/23 05:12:13;;;;;;;0.00;0.00;;;;;;;;;;2089987;28;20359;-84
2022/04/23 05:13:47;;;;;;;0.00;0.00;;;;;;;;;;2089742;28;20031;-83
2022/04/23 05:15:03;;;;;;;0.03;0.00;;;;;;;;;;2094061;28;20028;-83
2022/04/23 05:16:16;;;;;;;0.00;0.00;;;;;;;;;;2098405;28;20051;-84
2022/04/23 05:19:46;;;;;;;;;;;;;;;;;;;;;
2022/04/23 05:21:20;;;;;;;;;;;;;;;;;;;;;
2022/04/23 05:25:14;;;;;;;;;;;;;;;;;;;;;
2022/04/23 05:31:26;;;;;;;0.20;0.13;;;;;;;;;;2010696;29;20111;-83
2022/04/23 05:32:50;;;;;;;0.00;0.00;;;;;;;;;;2005594;29;20124;-82
2022/04/23 05:36:06;;;;;;;0.00;0.00;;;;;;;;;;2010012;29;20089;-82
2022/04/23 05:37:39;;;;;;;;;;;;;;;;;;;;;
2022/04/23 05:39:15;;;;;;;0.17;0.17;;;;;;;;;;2086640;22;20052;-81
2022/04/23 05:40:36;;;;;;;;;;;;;;;;;;;;;
2022/04/23 05:45:40;;;;;;;0.00;0.00;;;;;;;;;;2097256;28;19908;-82
2022/04/23 05:46:43;;;;;;;0.05;0.05;;;;;;;;;;2088390;28;20082;-82
2022/04/23 05:47:59;;;;;;;0.05;0.05;;;;;;;;;;2080531;28;20376;-82
2022/04/23 05:49:51;;;;;;;0.30;0.08;;;;;;;;;;2082171;28;20552;-82
2022/04/23 05:50:59;;;;;;;0.00;0.00;;;;;;;;;;2063632;28;20450;-82
2022/04/23 05:54:43;;;;;;;0.00;0.00;;;;;;;;;;2039155;29;20070;-82
2022/04/23 05:56:34;;;;;;;;;;;;;;;;;;;;;
2022/04/23 05:57:35;;;;;;;0.00;0.00;;;;;;;;;;2085045;28;20195;-82
2022/04/23 05:59:50;;;;;;;;;;;;;;;;;;;;;
2022/04/23 06:01:05;;;;;;;0.00;0.00;;;;;;;;;;2057609;28;20051;-82
2022/04/23 06:02:53;;;;;;;0.00;0.00;;;;;;;;;;2055173;28;20113;-82
2022/04/23 06:06:15;;;;;;;0.00;0.00;;;;;;;;;;2026305;29;20044;-82
2022/04/23 06:07:53;;;;;;;;;;;;;;;;;;;;;
2022/04/23 06:11:50;;;;;;;0.17;0.17;;;;;;;;;;2023306;29;20469;-82
2022/04/23 06:13:32;;;;;;;1.17;0.47;;;;;;;;;;2031417;29;20067;-82
2022/04/23 06:15:28;;;;;;;0.00;0.00;;;;;;;;;;2035940;29;20458;-82
2022/04/23 06:17:25;;;;;;;;;;;;;;;;;;;;;
2022/04/23 06:20:33;;;;;;;0.25;0.20;;;;;;;;;;2006899;29;20103;-81
2022/04/23 06:21:36;;;;;;;0.00;0.00;;;;;;;;;;2035267;29;20139;-81
2022/04/23 06:22:38;;;;;;;0.03;0.03;;;;;;;;;;2066383;28;20041;-83
2022/04/23 06:24:01;;;;;;;0.10;0.10;;;;;;;;;;2072530;28;20065;-82
2022/04/23 06:25:40;;;;;;;0.00;0.00;;;;;;;;;;2075797;28;20065;-81
2022/04/23 06:28:10;;;;;;;0.00;0.00;;;;;;;;;;2080312;28;20537;-82
2022/04/23 06:29:13;;;;;;;0.10;0.10;;;;;;;;;;2081241;28;20029;-82
2022/04/23 06:30:16;;;;;;;0.00;0.00;;;;;;;;;;2081457;28;20034;-82
2022/04/23 06:31:24;;;;;;;0.15;0.15;;;;;;;;;;2080219;28;20458;-82
2022/04/23 06:32:30;;;;;;;0.10;0.10;;;;;;;;;;2073441;28;20036;-82
2022/04/23 06:33:33;;;;;;;0.00;0.00;;;;;;;;;;2080636;28;20116;-82
2022/04/23 06:35:17;;;;;;;0.00;0.00;;;;;;;;;;2072167;28;20124;-82
2022/04/23 06:36:33;;;;;;;0.10;0.10;;;;;;;;;;2072795;28;20041;-82
2022/04/23 06:37:42;;;;;;;0.17;0.17;;;;;;;;;;2080562;28;20033;-82
2022/04/23 06:38:43;;;;;;;0.08;0.08;;;;;;;;;;2081036;28;20074;-82
2022/04/23 06:40:09;;;;;;;0.00;0.00;;;;;;;;;;2088633;28;20102;-82
2022/04/23 06:41:13;;;;;;;0.00;0.00;;;;;;;;;;2088680;28;20033;-82
2022/04/23 06:42:14;;;;;;;0.65;0.65;;;;;;;;;;2087348;28;20546;-82
2022/04/23 06:43:44;;;;;;;0.70;0.25;;;;;;;;;;2080921;28;20401;-82
2022/04/23 06:44:52;;;;;;;1.95;0.30;;;;;;;;;;2067286;28;20042;-82
2022/04/23 06:46:02;;;;;;;;;;;;;;;;;;;;;
2022/04/23 06:47:16;;;;;;;0.00;0.00;;;;;;;;;;2080041;28;20025;-82
2022/04/23 06:48:17;;;;;;;0.00;0.00;;;;;;;;;;2085926;28;20540;-82
2022/04/23 06:49:24;;;;;;;0.52;0.52;;;;;;;;;;2087501;28;20029;-83
2022/04/23 06:50:44;;;;;;;0.08;0.08;;;;;;;;;;2089222;28;20584;-82
2022/04/23 06:53:42;;;;;;;0.00;0.00;;;;;;;;;;2074365;28;20033;-82
2022/04/23 06:55:10;;;;;;;0.10;0.05;;;;;;;;;;2081852;28;20167;-83
2022/04/23 06:56:15;;;;;;;0.00;0.00;;;;;;;;;;2087759;28;20032;-82
2022/04/23 06:57:57;;;;;;;;;;;;;;;;;;;;;
2022/04/23 06:59:23;;;;;;;0.05;0.05;;;;;;;;;;2085626;28;20064;-81
2022/04/23 07:00:24;;;;;;;0.00;0.00;;;;;;;;;;2087503;28;20040;-81
2022/04/23 07:01:25;;;;;;;0.10;0.10;;;;;;;;;;2088052;28;20025;-82
2022/04/23 07:02:52;;;;;;;0.00;0.00;;;;;;;;;;2089104;28;20036;-81
2022/04/23 07:03:55;;;;;;;0.08;0.08;;;;;;;;;;2080985;28;20055;-83
2022/04/23 07:05:19;;;;;;;0.32;0.32;;;;;;;;;;2076128;28;20444;-85
2022/04/23 07:06:19;;;;;;;0.25;0.22;;;;;;;;;;2079031;28;20060;-83
2022/04/23 07:08:07;;;;;;;;;;;;;;;;;;;;;
2022/04/23 07:09:35;;;;;;;;;;;;;;;;;;;;;
2022/04/23 07:11:12;;;;;;;0.00;0.00;;;;;;;;;;2083124;28;20402;-83
2022/04/23 07:12:15;;;;;;;0.00;0.00;;;;;;;;;;2084812;28;20029;-83
2022/04/23 07:13:18;;;;;;;0.10;0.10;;;;;;;;;;2085793;28;20025;-83
2022/04/23 07:14:29;;;;;;;0.00;0.00;;;;;;;;;;2089155;28;20032;-83
2022/04/23 07:15:47;;;;;;;0.00;0.00;;;;;;;;;;2088454;28;20405;-83
2022/04/23 07:16:50;;;;;;;0.10;0.10;;;;;;;;;;2089059;28;20013;-83
2022/04/23 07:18:15;;;;;;;0.00;0.00;;;;;;;;;;2090732;28;20056;-83
2022/04/23 07:20:54;;;;;;;0.00;0.00;;;;;;;;;;2088737;28;20036;-83
2022/04/23 07:22:01;;;;;;;0.00;0.00;;;;;;;;;;2089141;28;20036;-82
2022/04/23 07:24:20;;;;;;;0.15;0.15;;;;;;;;;;2088975;28;20025;-82
2022/04/23 07:25:23;;;;;;;0.00;0.00;;;;;;;;;;2072268;28;20029;-84
2022/04/23 07:26:26;;;;;;;0.00;0.00;;;;;;;;;;2073860;28;20386;-82
2022/04/23 07:27:52;;;;;;;0.00;0.00;;;;;;;;;;2087542;28;20032;-81
2022/04/23 07:28:58;;;;;;;0.60;0.30;;;;;;;;;;2089197;28;20045;-82
2022/04/23 07:31:42;;;;;;;0.00;0.00;;;;;;;;;;2083837;28;20635;-82
2022/04/23 07:32:48;;;;;;;0.20;0.20;;;;;;;;;;2089089;28;20025;-83
2022/04/23 07:37:54;;;;;;;0.00;0.00;;;;;;;;;;2090807;28;20033;-83
2022/04/23 07:38:57;;;;;;;0.00;0.00;;;;;;;;;;2088776;28;20045;-82
2022/04/23 07:40:10;;;;;;;0.00;0.00;;;;;;;;;;2080934;28;20417;-84
2022/04/23 07:41:14;;;;;;;0.03;0.03;;;;;;;;;;2073379;28;20061;-82
2022/04/23 07:42:25;;;;;;;;;;;;;;;;;;;;;
2022/04/23 07:43:43;;;;;;;;;;;;;;;;;;;;;
2022/04/23 07:44:46;;;;;;;0.08;0.08;;;;;;;;;;2081486;28;19927;-84
2022/04/23 07:45:57;;;;;;;0.05;0.05;;;;;;;;;;2078039;28;20025;-83
2022/04/23 07:47:00;;;;;;;0.10;0.10;;;;;;;;;;2074940;28;20034;-83
2022/04/23 07:48:01;;;;;;;0.00;0.00;;;;;;;;;;2082250;28;20029;-82
2022/04/23 07:49:04;;;;;;;0.30;0.30;;;;;;;;;;2081802;28;20033;-82
2022/04/23 07:50:05;;;;;;;0.00;0.00;;;;;;;;;;2081874;28;20052;-83
2022/04/23 07:51:18;;;;;;;;;;;;;;;;;;;;;
2022/04/23 07:52:21;;;;;;;0.10;0.10;;;;;;;;;;2082368;28;20112;-83
2022/04/23 07:53:32;;;;;;;;;;;;;;;;;;;;;
2022/04/23 07:54:33;;;;;;;0.00;0.00;;;;;;;;;;2073779;28;20045;-83
2022/04/23 07:55:42;;;;;;;0.10;0.10;;;;;;;;;;2084746;28;20025;-83
2022/04/23 07:56:44;;;;;;;0.00;0.00;;;;;;;;;;2081738;28;20048;-84